Time;durP1;ratioP1;P1;durP2;ratioP2;P2;SDS_P1;SDS_P2;PMS_P1;PMS_P2;Temp;Humidity;BMP_temperature;BMP_pressure;BME280_temperature;BME280_humidity;BME280_pressure;Samples;Min_cycle;Max_cycle;Signal;HPM_P1;HPM_P2
2023/05/21 00:00:47;;;;;;;0.40;0.40;;;15.20;82.60;;;;;;5064718;28;20452;-84
2023/05/21 00:03:15;;;;;;;0.52;0.52;;;15.20;83.00;;;;;;5060131;28;20028;-83
2023/05/21 00:05:41;;;;;;;1.80;1.02;;;15.20;83.20;;;;;;5060483;28;20099;-84
2023/05/21 00:08:06;;;;;;;0.17;0.17;;;15.10;83.70;;;;;;5046464;28;20068;-84
2023/05/21 00:10:32;;;;;;;3.23;1.20;;;15.20;83.90;;;;;;5061756;28;20044;-84
2023/05/21 00:12:58;;;;;;;0.50;0.50;;;15.20;84.20;;;;;;5064750;28;20608;-83
2023/05/21 00:15:24;;;;;;;0.20;0.20;;;15.10;84.20;;;;;;5046090;28;20107;-83
2023/05/21 00:17:49;;;;;;;0.30;0.30;;;15.10;84.20;;;;;;5064177;28;20039;-84
2023/05/21 00:20:16;;;;;;;0.40;0.40;;;15.20;84.20;;;;;;5040250;28;20530;-82
2023/05/21 00:22:42;;;;;;;0.70;0.70;;;15.20;84.10;;;;;;5064193;28;20024;-82
2023/05/21 00:25:09;;;;;;;0.40;0.40;;;15.10;84.60;;;;;;5063780;28;20625;-83
2023/05/21 00:27:35;;;;;;;0.20;0.20;;;15.00;85.10;;;;;;5053987;28;20813;-83
2023/05/21 00:30:01;;;;;;;0.80;0.80;;;15.00;85.30;;;;;;5063969;28;20024;-82
2023/05/21 00:32:27;;;;;;;0.00;0.00;;;15.00;85.50;;;;;;5063619;28;20021;-83
2023/05/21 00:34:53;;;;;;;0.50;0.50;;;15.00;85.70;;;;;;5063130;28;20399;-83
2023/05/21 00:37:19;;;;;;;0.60;0.60;;;15.00;86.60;;;;;;5062663;28;20063;-83
2023/05/21 00:39:45;;;;;;;0.57;0.43;;;14.90;86.60;;;;;;5047732;28;20098;-83
2023/05/21 00:42:11;;;;;;;0.37;0.37;;;14.80;87.70;;;;;;5063111;28;20029;-84
2023/05/21 00:44:37;;;;;;;0.10;0.10;;;14.80;87.80;;;;;;5062659;28;20056;-81
2023/05/21 00:47:05;;;;;;;0.60;0.52;;;14.70;88.30;;;;;;5062706;28;20052;-82
2023/05/21 00:49:31;;;;;;;0.77;0.77;;;14.80;87.70;;;;;;5061894;28;20036;-83
2023/05/21 00:52:00;;;;;;;3.53;1.57;;;14.70;88.20;;;;;;5061937;28;20049;-85
2023/05/21 00:54:26;;;;;;;0.15;0.15;;;14.70;88.50;;;;;;5053114;28;20033;-84
2023/05/21 00:56:55;;;;;;;0.43;0.43;;;14.70;88.90;;;;;;5057405;28;20171;-84
2023/05/21 00:59:20;;;;;;;1.65;0.55;;;14.60;88.80;;;;;;5058723;28;20056;-83
2023/05/21 01:01:52;;;;;;;0.65;0.65;;;14.60;88.90;;;;;;5060765;28;20063;-83
2023/05/21 01:04:19;;;;;;;0.10;0.10;;;14.50;89.20;;;;;;5046331;28;20052;-83
2023/05/21 01:06:45;;;;;;;0.55;0.55;;;14.50;89.70;;;;;;5048820;28;20586;-83
2023/05/21 01:09:11;;;;;;;0.65;0.65;;;14.40;89.90;;;;;;5036921;28;20036;-85
2023/05/21 01:11:42;;;;;;;0.10;0.10;;;14.40;90.10;;;;;;5058732;28;20107;-84
2023/05/21 01:14:11;;;;;;;1.73;0.85;;;14.50;90.00;;;;;;5056676;28;20059;-83
2023/05/21 01:16:38;;;;;;;0.10;0.10;;;14.50;90.00;;;;;;5060994;28;20036;-82
2023/05/21 01:19:05;;;;;;;0.38;0.38;;;14.40;90.00;;;;;;5061032;28;20065;-82
2023/05/21 01:21:36;;;;;;;0.55;0.55;;;14.40;89.80;;;;;;5055908;28;20094;-82
2023/05/21 01:24:04;;;;;;;0.22;0.22;;;14.50;89.50;;;;;;5054519;28;20028;-83
2023/05/21 01:26:32;;;;;;;0.25;0.25;;;14.50;89.20;;;;;;5059851;28;20033;-82
2023/05/21 01:28:58;;;;;;;11.98;1.05;;;14.50;89.10;;;;;;5059402;28;20032;-82
2023/05/21 01:31:34;;;;;;;0.20;0.20;;;14.50;89.10;;;;;;5058085;28;20039;-83
2023/05/21 01:34:04;;;;;;;0.25;0.25;;;14.50;89.30;;;;;;5054208;28;20024;-82
2023/05/21 01:36:39;;;;;;;0.73;0.73;;;14.50;89.40;;;;;;5036809;28;20037;-83
2023/05/21 01:39:24;;;;;;;0.32;0.32;;;14.50;89.60;;;;;;5033779;28;20112;-83
2023/05/21 01:41:53;;;;;;;0.20;0.20;;;14.50;89.60;;;;;;5060511;28;20063;-84
2023/05/21 01:44:21;;;;;;;0.82;0.82;;;14.50;89.50;;;;;;5036102;28;20020;-83
2023/05/21 01:46:48;;;;;;;0.30;0.30;;;14.40;89.90;;;;;;5059983;28;20033;-83
2023/05/21 01:49:16;;;;;;;0.75;0.65;;;14.50;89.80;;;;;;5058368;28;20013;-84
2023/05/21 01:51:42;;;;;;;0.20;0.20;;;14.50;90.00;;;;;;5058696;28;20076;-84
2023/05/21 01:54:08;;;;;;;0.30;0.30;;;14.60;89.60;;;;;;5048651;28;20032;-84
2023/05/21 01:56:35;;;;;;;0.30;0.30;;;14.50;89.50;;;;;;5057793;28;20039;-84
2023/05/21 01:59:01;;;;;;;0.17;0.17;;;14.60;89.50;;;;;;5062286;28;20033;-81
2023/05/21 02:01:29;;;;;;;0.43;0.43;;;14.50;89.50;;;;;;5061204;28;20035;-81
2023/05/21 02:03:55;;;;;;;0.40;0.40;;;14.50;89.40;;;;;;5059776;28;20060;-82
2023/05/21 02:06:21;;;;;;;;;;;14.50;89.40;;;;;;5056548;28;20024;-82
2023/05/21 02:08:47;;;;;;;0.33;0.33;;;14.50;89.50;;;;;;5039694;28;20382;-84
2023/05/21 02:11:13;;;;;;;0.30;0.30;;;14.40;89.70;;;;;;5062210;28;20032;-83
2023/05/21 02:13:41;;;;;;;0.13;0.13;;;14.50;89.90;;;;;;5062263;28;20024;-83
2023/05/21 02:16:10;;;;;;;8.55;0.40;;;14.50;89.70;;;;;;5060400;28;20024;-85
2023/05/21 02:18:42;;;;;;;0.90;0.88;;;14.50;90.00;;;;;;5054535;28;20016;-85
2023/05/21 02:21:10;;;;;;;0.70;0.70;;;14.50;89.90;;;;;;5062976;28;20029;-84
2023/05/21 02:23:36;;;;;;;0.20;0.20;;;14.40;90.00;;;;;;5062004;28;20120;-84
2023/05/21 02:26:02;;;;;;;0.97;0.77;;;14.40;90.30;;;;;;5062495;28;20045;-83
2023/05/21 02:28:28;;;;;;;0.87;0.87;;;14.30;90.30;;;;;;5054536;28;20160;-83
2023/05/21 02:30:54;;;;;;;0.20;0.20;;;14.30;90.60;;;;;;5051368;28;20025;-84
2023/05/21 02:33:20;;;;;;;0.15;0.15;;;14.30;90.60;;;;;;5058547;28;20024;-84
2023/05/21 02:35:47;;;;;;;0.67;0.50;;;14.30;90.70;;;;;;5057284;28;20032;-85
2023/05/21 02:38:13;;;;;;;0.32;0.32;;;14.30;90.60;;;;;;5060945;28;20399;-85
2023/05/21 02:40:39;;;;;;;0.57;0.57;;;14.40;90.30;;;;;;5052202;28;20123;-85
2023/05/21 02:43:05;;;;;;;3.13;1.45;;;14.40;90.20;;;;;;5060499;28;20031;-86
2023/05/21 02:45:31;;;;;;;0.10;0.10;;;14.40;90.20;;;;;;5055927;28;20528;-85
2023/05/21 02:47:56;;;;;;;0.33;0.33;;;14.50;90.10;;;;;;5059216;28;20066;-85
2023/05/21 02:50:22;;;;;;;0.27;0.27;;;14.50;89.90;;;;;;5055843;28;20053;-85
2023/05/21 02:52:48;;;;;;;0.10;0.10;;;14.50;89.90;;;;;;5057086;28;20024;-83
2023/05/21 02:55:13;;;;;;;0.47;0.47;;;14.50;90.00;;;;;;5030703;28;20032;-84
2023/05/21 02:57:39;;;;;;;0.37;0.37;;;14.50;90.00;;;;;;5051623;28;20025;-85
2023/05/21 03:00:07;;;;;;;1.00;1.00;;;14.40;90.00;;;;;;5063668;28;20039;-85
2023/05/21 03:02:33;;;;;;;0.45;0.45;;;14.40;90.00;;;;;;5063511;28;20035;-83
2023/05/21 03:04:59;;;;;;;0.32;0.32;;;14.40;90.20;;;;;;5053925;28;20029;-82
2023/05/21 03:07:25;;;;;;;0.20;0.20;;;14.30;90.60;;;;;;5059379;28;20047;-82
2023/05/21 03:09:50;;;;;;;1.93;1.17;;;14.30;90.60;;;;;;5061222;28;20040;-82
2023/05/21 03:12:16;;;;;;;0.32;0.32;;;14.30;90.90;;;;;;5055942;28;20082;-84
2023/05/21 03:14:42;;;;;;;0.10;0.10;;;14.20;90.90;;;;;;5044501;28;20048;-81
2023/05/21 03:17:12;;;;;;;0.17;0.17;;;14.30;90.90;;;;;;5059588;28;20102;-83
2023/05/21 03:19:39;;;;;;;0.30;0.30;;;14.30;90.80;;;;;;5063455;28;20032;-83
2023/05/21 03:22:05;;;;;;;0.32;0.32;;;14.30;90.60;;;;;;5064676;28;20067;-85
2023/05/21 03:24:31;;;;;;;0.90;0.47;;;14.30;90.70;;;;;;5041068;28;20389;-85
2023/05/21 03:27:01;;;;;;;0.15;0.15;;;14.20;90.80;;;;;;5062026;28;20029;-86
2023/05/21 03:29:27;;;;;;;0.32;0.32;;;14.20;90.90;;;;;;5061626;28;20033;-86
2023/05/21 03:31:53;;;;;;;0.30;0.30;;;14.20;91.00;;;;;;5062102;28;20044;-84
2023/05/21 03:34:19;;;;;;;0.28;0.28;;;14.10;91.00;;;;;;5058226;28;20878;-82
2023/05/21 03:36:46;;;;;;;0.25;0.20;;;14.20;90.90;;;;;;5057782;28;20037;-82
2023/05/21 03:39:12;;;;;;;0.63;0.63;;;14.20;91.00;;;;;;5063331;28;20542;-82
2023/05/21 03:41:38;;;;;;;0.63;0.63;;;14.20;91.10;;;;;;5063615;28;20036;-82
2023/05/21 03:44:03;;;;;;;0.30;0.30;;;14.20;90.80;;;;;;5060608;28;20040;-82
2023/05/21 03:46:29;;;;;;;0.15;0.15;;;14.20;90.80;;;;;;5045510;28;20044;-84
2023/05/21 03:48:56;;;;;;;0.17;0.17;;;14.20;90.90;;;;;;5064394;28;20121;-83
2023/05/21 03:51:23;;;;;;;0.25;0.25;;;14.20;90.90;;;;;;5058762;28;20048;-83
2023/05/21 03:53:49;;;;;;;0.20;0.20;;;14.10;91.00;;;;;;5057661;28;20257;-83
2023/05/21 03:56:15;;;;;;;0.50;0.50;;;14.10;91.00;;;;;;5047467;28;20029;-83
2023/05/21 03:58:41;;;;;;;0.53;0.50;;;14.20;90.90;;;;;;5059799;28;20028;-83
2023/05/21 04:01:07;;;;;;;0.57;0.57;;;14.20;90.80;;;;;;5064668;28;20106;-85
2023/05/21 04:03:34;;;;;;;0.28;0.28;;;14.20;90.90;;;;;;5063207;28;20209;-85
2023/05/21 04:06:00;;;;;;;0.30;0.30;;;14.20;91.00;;;;;;5034491;28;20040;-84
2023/05/21 04:08:26;;;;;;;0.10;0.10;;;14.20;90.90;;;;;;5060350;28;20334;-83
2023/05/21 04:10:52;;;;;;;0.67;0.67;;;14.10;91.10;;;;;;5059247;28;20535;-83
2023/05/21 04:13:17;;;;;;;2.23;1.20;;;14.00;91.40;;;;;;5063136;28;20033;-83
2023/05/21 04:15:45;;;;;;;2.43;1.47;;;13.90;91.60;;;;;;5062735;28;20029;-85
2023/05/21 04:18:12;;;;;;;0.52;0.50;;;13.90;91.60;;;;;;5056806;28;20021;-83
2023/05/21 04:20:38;;;;;;;0.13;0.13;;;13.90;91.70;;;;;;5062211;28;20024;-82
2023/05/21 04:23:04;;;;;;;0.30;0.30;;;13.90;91.80;;;;;;5052172;28;20086;-82
2023/05/21 04:25:29;;;;;;;1.17;0.68;;;13.90;92.20;;;;;;5061830;28;20063;-82
2023/05/21 04:27:55;;;;;;;0.50;0.50;;;13.80;92.10;;;;;;5061455;28;20040;-82
2023/05/21 04:30:22;;;;;;;0.50;0.50;;;13.80;92.20;;;;;;5060243;28;20028;-82
2023/05/21 04:32:48;;;;;;;0.40;0.40;;;13.70;92.40;;;;;;5042763;28;20025;-82
2023/05/21 04:35:14;;;;;;;0.60;0.60;;;13.80;92.50;;;;;;5046474;28;20090;-81
2023/05/21 04:37:40;;;;;;;0.53;0.53;;;13.80;92.50;;;;;;5062824;28;20029;-81
2023/05/21 04:40:10;;;;;;;0.77;0.77;;;13.70;92.50;;;;;;5063246;28;20116;-82
2023/05/21 04:42:35;;;;;;;0.35;0.35;;;13.80;92.50;;;;;;5062367;28;20051;-81
2023/05/21 04:45:01;;;;;;;0.85;0.85;;;13.80;92.40;;;;;;5061770;28;20483;-82
2023/05/21 04:47:34;;;;;;;0.40;0.40;;;13.90;92.30;;;;;;5057814;28;20033;-82
2023/05/21 04:50:01;;;;;;;0.40;0.40;;;13.90;92.20;;;;;;5054697;28;20052;-80
2023/05/21 04:52:26;;;;;;;;;;;14.00;92.00;;;;;;5061906;28;20021;-80
2023/05/21 04:54:52;;;;;;;0.10;0.10;;;14.10;91.90;;;;;;5054656;28;19919;-80
2023/05/21 04:57:18;;;;;;;0.20;0.20;;;14.20;91.60;;;;;;5051455;28;20031;-80
2023/05/21 04:59:45;;;;;;;0.33;0.33;;;14.10;91.80;;;;;;5061935;28;20036;-80
2023/05/21 05:02:11;;;;;;;0.40;0.35;;;14.10;91.70;;;;;;5053491;28;20024;-80
2023/05/21 05:04:37;;;;;;;0.22;0.22;;;14.20;91.80;;;;;;5051382;28;20035;-80
2023/05/21 05:07:03;;;;;;;0.23;0.23;;;14.20;91.70;;;;;;5060831;28;20034;-81
2023/05/21 05:09:30;;;;;;;0.20;0.20;;;14.10;91.70;;;;;;5035973;28;20029;-80
2023/05/21 05:11:56;;;;;;;0.17;0.17;;;14.20;92.00;;;;;;5051381;28;20112;-82
2023/05/21 05:14:21;;;;;;;0.30;0.30;;;14.20;91.80;;;;;;5060621;28;20036;-83
2023/05/21 05:16:47;;;;;;;0.20;0.20;;;14.20;91.80;;;;;;5059049;28;20078;-86
2023/05/21 05:19:13;;;;;;;0.20;0.20;;;14.30;91.60;;;;;;5054895;28;20027;-86
2023/05/21 05:21:38;;;;;;;0.53;0.53;;;14.30;91.70;;;;;;5045518;28;20029;-85
2023/05/21 05:24:05;;;;;;;0.45;0.45;;;14.30;91.60;;;;;;5042576;28;21039;-85
2023/05/21 05:26:30;;;;;;;0.20;0.20;;;14.40;91.50;;;;;;5050260;28;20114;-86
2023/05/21 05:28:56;;;;;;;0.27;0.27;;;14.40;91.50;;;;;;5043154;28;20049;-87
2023/05/21 05:31:22;;;;;;;0.43;0.43;;;14.40;91.50;;;;;;5054585;28;20090;-85
2023/05/21 05:33:48;;;;;;;0.63;0.63;;;14.40;91.80;;;;;;5033345;28;20028;-85
2023/05/21 05:36:13;;;;;;;0.47;0.47;;;14.40;91.80;;;;;;5045558;28;20071;-85
2023/05/21 05:38:39;;;;;;;0.17;0.17;;;14.30;92.10;;;;;;5037418;28;20139;-85
2023/05/21 05:41:05;;;;;;;0.80;0.80;;;14.30;92.20;;;;;;5030342;28;20552;-87
2023/05/21 05:43:30;;;;;;;0.30;0.30;;;14.30;92.40;;;;;;5058369;28;20039;-84
2023/05/21 05:45:56;;;;;;;0.30;0.30;;;14.30;92.30;;;;;;5060408;28;20031;-84
2023/05/21 05:48:22;;;;;;;0.80;0.80;;;14.50;91.90;;;;;;5046110;28;20048;-84
2023/05/21 05:50:47;;;;;;;0.10;0.10;;;14.80;91.40;;;;;;5049527;28;20041;-85
2023/05/21 05:53:13;;;;;;;0.38;0.30;;;14.90;91.00;;;;;;5055045;28;20652;-85
2023/05/21 05:55:39;;;;;;;0.20;0.20;;;14.90;90.90;;;;;;5059073;28;20020;-86
2023/05/21 05:58:05;;;;;;;0.27;0.27;;;15.00;90.80;;;;;;5046727;28;20041;-81
2023/05/21 06:00:31;;;;;;;0.10;0.10;;;15.00;91.10;;;;;;5054681;28;20282;-82
2023/05/21 06:02:57;;;;;;;0.10;0.10;;;15.00;91.20;;;;;;5048073;28;20280;-82
2023/05/21 06:05:22;;;;;;;0.50;0.50;;;15.00;90.80;;;;;;5056281;28;20062;-82
2023/05/21 06:07:48;;;;;;;0.77;0.63;;;15.00;90.80;;;;;;5048231;28;20098;-83
2023/05/21 06:10:14;;;;;;;0.50;0.50;;;15.00;90.70;;;;;;5043236;28;20104;-83
2023/05/21 06:12:39;;;;;;;4.43;0.90;;;15.00;91.10;;;;;;5044767;28;20053;-83
2023/05/21 06:15:06;;;;;;;0.70;0.70;;;15.10;90.80;;;;;;5044747;28;20036;-84
2023/05/21 06:17:31;;;;;;;1.85;0.52;;;15.10;91.40;;;;;;5052162;28;20573;-83
2023/05/21 06:19:57;;;;;;;0.67;0.60;;;15.00;91.60;;;;;;5056989;28;20025;-84
2023/05/21 06:22:23;;;;;;;0.73;0.73;;;15.00;91.70;;;;;;5059634;28;20676;-82
2023/05/21 06:24:48;;;;;;;0.40;0.40;;;15.10;91.60;;;;;;5054718;28;20025;-82
2023/05/21 06:27:14;;;;;;;0.70;0.70;;;15.20;91.60;;;;;;5051096;28;20033;-82
2023/05/21 06:29:40;;;;;;;0.20;0.20;;;15.40;91.40;;;;;;5049112;28;20107;-81
2023/05/21 06:32:09;;;;;;;0.67;0.67;;;15.50;91.90;;;;;;5054252;28;20025;-82
2023/05/21 06:34:35;;;;;;;0.20;0.20;;;15.40;92.10;;;;;;5052397;28;20025;-82
2023/05/21 06:37:01;;;;;;;0.30;0.30;;;15.40;92.10;;;;;;5059267;28;20706;-80
2023/05/21 06:39:26;;;;;;;1.00;0.43;;;15.30;91.60;;;;;;5051964;28;20033;-81
2023/05/21 06:41:52;;;;;;;0.23;0.23;;;15.30;91.70;;;;;;5050683;28;20111;-80
2023/05/21 06:44:18;;;;;;;0.30;0.30;;;15.40;91.60;;;;;;5056987;28;20028;-79
2023/05/21 06:46:43;;;;;;;0.47;0.47;;;15.40;91.80;;;;;;5063726;28;20032;-80
2023/05/21 06:49:11;;;;;;;0.20;0.20;;;15.40;91.90;;;;;;5037137;28;20045;-82
2023/05/21 06:51:37;;;;;;;0.30;0.30;;;15.30;92.10;;;;;;5058584;28;20048;-81
2023/05/21 06:54:03;;;;;;;0.37;0.33;;;15.30;91.60;;;;;;5056711;28;20087;-81
2023/05/21 06:56:28;;;;;;;0.53;0.53;;;15.30;91.50;;;;;;5051676;28;20149;-79
2023/05/21 06:58:54;;;;;;;0.17;0.17;;;15.30;91.80;;;;;;5053153;28;20068;-80
2023/05/21 07:01:21;;;;;;;0.30;0.30;;;15.30;91.70;;;;;;5058051;28;20021;-80
2023/05/21 07:03:47;;;;;;;1.65;0.45;;;15.30;91.40;;;;;;5048559;28;20020;-82
2023/05/21 07:06:13;;;;;;;0.65;0.65;;;15.50;91.30;;;;;;5044952;28;20119;-80
2023/05/21 07:08:39;;;;;;;0.30;0.30;;;15.70;90.80;;;;;;5050184;28;20033;-80
2023/05/21 07:11:04;;;;;;;0.30;0.30;;;15.80;90.80;;;;;;5044541;28;20013;-80
2023/05/21 07:13:30;;;;;;;0.20;0.20;;;15.70;90.90;;;;;;5048725;28;20100;-81
2023/05/21 07:15:56;;;;;;;0.30;0.30;;;15.60;91.10;;;;;;5050280;28;20027;-82
2023/05/21 07:18:21;;;;;;;0.40;0.40;;;15.60;91.50;;;;;;5044760;28;20107;-81
2023/05/21 07:20:47;;;;;;;0.63;0.63;;;15.60;92.00;;;;;;5053895;28;20024;-81
2023/05/21 07:23:13;;;;;;;0.30;0.30;;;15.60;92.20;;;;;;5047916;28;20021;-81
2023/05/21 07:25:38;;;;;;;0.33;0.33;;;15.60;92.40;;;;;;5053223;28;20115;-81
2023/05/21 07:28:04;;;;;;;0.50;0.50;;;15.40;92.90;;;;;;5049289;28;20057;-80
2023/05/21 07:30:30;;;;;;;0.60;0.60;;;15.40;92.70;;;;;;5035032;28;20036;-80
2023/05/21 07:32:56;;;;;;;0.37;0.37;;;15.40;92.50;;;;;;5036787;28;20024;-81
2023/05/21 07:35:21;;;;;;;1.33;0.93;;;15.20;93.00;;;;;;5052929;28;20075;-82
2023/05/21 07:37:47;;;;;;;0.53;0.53;;;15.30;93.00;;;;;;5045983;28;20100;-83
2023/05/21 07:40:13;;;;;;;0.20;0.20;;;15.60;92.60;;;;;;5049651;28;20055;-81
2023/05/21 07:42:39;;;;;;;0.60;0.60;;;15.60;92.40;;;;;;5029393;28;20033;-81
2023/05/21 07:45:06;;;;;;;0.70;0.63;;;15.90;92.00;;;;;;5046374;28;20111;-82
2023/05/21 07:47:31;;;;;;;0.35;0.35;;;16.10;91.40;;;;;;5062236;28;20440;-81
2023/05/21 07:49:57;;;;;;;0.50;0.50;;;16.70;90.40;;;;;;5050893;28;20055;-82
2023/05/21 07:52:24;;;;;;;0.30;0.30;;;17.30;88.50;;;;;;5050613;28;20062;-79
2023/05/21 07:54:49;;;;;;;1.00;0.55;;;17.80;86.30;;;;;;5049081;28;20028;-83
2023/05/21 07:57:15;;;;;;;0.53;0.53;;;17.80;85.20;;;;;;5057083;28;20043;-81
2023/05/21 07:59:41;;;;;;;0.67;0.67;;;17.90;85.20;;;;;;5036797;28;20036;-81
2023/05/21 08:02:07;;;;;;;0.33;0.33;;;17.90;85.20;;;;;;5058687;28;20032;-81
2023/05/21 08:04:32;;;;;;;0.20;0.20;;;17.80;85.60;;;;;;5058619;28;20025;-81
2023/05/21 08:06:58;;;;;;;1.20;0.90;;;18.00;86.00;;;;;;5051263;28;20075;-81
2023/05/21 08:09:24;;;;;;;0.23;0.23;;;17.70;85.90;;;;;;5048935;28;20044;-81
2023/05/21 08:11:50;;;;;;;0.05;0.05;;;17.60;86.20;;;;;;5058189;28;20111;-80
2023/05/21 08:14:16;;;;;;;0.33;0.33;;;17.50;86.70;;;;;;5058444;28;20039;-80
2023/05/21 08:16:43;;;;;;;0.40;0.40;;;17.40;86.90;;;;;;5044227;28;20021;-81
2023/05/21 08:19:09;;;;;;;0.30;0.30;;;17.00;87.90;;;;;;5057865;28;20025;-81
2023/05/21 08:21:35;;;;;;;0.77;0.77;;;16.90;88.80;;;;;;5044174;28;20048;-81
2023/05/21 08:24:01;;;;;;;0.20;0.20;;;16.90;88.40;;;;;;5058534;28;20043;-82
2023/05/21 08:26:27;;;;;;;0.30;0.30;;;17.00;88.00;;;;;;5048000;28;20035;-80
2023/05/21 08:28:53;;;;;;;0.20;0.20;;;17.30;87.60;;;;;;5043457;28;20116;-80
2023/05/21 08:31:20;;;;;;;1.83;1.10;;;17.50;87.40;;;;;;5044012;28;20120;-81
2023/05/21 08:33:52;;;;;;;0.35;0.30;;;17.60;87.20;;;;;;5046420;28;20021;-80
2023/05/21 08:36:19;;;;;;;0.35;0.35;;;17.70;85.50;;;;;;5047654;28;20044;-89
2023/05/21 08:38:45;;;;;;;2.92;1.48;;;17.90;85.80;;;;;;5059970;28;20020;-85
2023/05/21 08:41:11;;;;;;;0.10;0.10;;;17.90;85.70;;;;;;5043821;28;20045;-89
2023/05/21 08:43:38;;;;;;;0.28;0.28;;;17.90;84.20;;;;;;5037786;28;20042;-84
2023/05/21 08:46:06;;;;;;;;;;;18.00;84.00;;;;;;5060188;28;20136;-86
2023/05/21 08:48:35;;;;;;;0.55;0.55;;;18.20;82.70;;;;;;5027480;28;20011;-86
2023/05/21 08:51:01;;;;;;;0.82;0.40;;;18.50;82.70;;;;;;5042790;28;20045;-87
2023/05/21 08:53:27;;;;;;;0.68;0.68;;;19.10;81.20;;;;;;5055863;28;20056;-86
2023/05/21 08:55:55;;;;;;;0.00;0.00;;;19.30;79.80;;;;;;5043904;28;20025;-81
2023/05/21 08:58:21;;;;;;;0.47;0.47;;;19.10;79.60;;;;;;5050447;28;20021;-81
2023/05/21 09:00:47;;;;;;;0.10;0.10;;;18.90;81.10;;;;;;5057466;28;20041;-81
2023/05/21 09:03:14;;;;;;;0.20;0.20;;;18.90;81.60;;;;;;5053483;28;20425;-84
2023/05/21 09:05:41;;;;;;;0.60;0.30;;;19.10;80.90;;;;;;5047259;28;20060;-81
2023/05/21 09:08:18;;;;;;;0.22;0.22;;;19.10;79.60;;;;;;5059052;28;20106;-80
2023/05/21 09:10:51;;;;;;;0.43;0.43;;;19.30;80.20;;;;;;5057731;28;20395;-81
2023/05/21 09:13:18;;;;;;;0.68;0.55;;;19.20;79.70;;;;;;5049627;28;20056;-80
2023/05/21 09:15:45;;;;;;;1.75;0.95;;;19.50;79.80;;;;;;5031674;28;20025;-83
2023/05/21 09:18:11;;;;;;;0.38;0.38;;;19.70;78.50;;;;;;5057660;28;20101;-82
2023/05/21 09:20:38;;;;;;;1.95;1.08;;;20.40;75.90;;;;;;5035589;28;20079;-82
2023/05/21 09:23:05;;;;;;;0.32;0.32;;;20.50;77.00;;;;;;5049651;28;20054;-82
2023/05/21 09:25:31;;;;;;;0.45;0.45;;;20.50;76.10;;;;;;5061105;28;20605;-82
2023/05/21 09:27:58;;;;;;;0.90;0.80;;;20.30;75.80;;;;;;5046336;28;20122;-80
2023/05/21 09:30:24;;;;;;;;;;;20.10;75.70;;;;;;5051932;28;20479;-81
2023/05/21 09:32:57;;;;;;;0.20;0.20;;;20.10;76.50;;;;;;5045093;28;19938;-83
2023/05/21 09:35:23;;;;;;;0.10;0.10;;;20.00;76.50;;;;;;5033990;28;20032;-83
2023/05/21 09:37:52;;;;;;;0.70;0.47;;;19.90;77.50;;;;;;5051717;28;20887;-83
2023/05/21 09:40:22;;;;;;;0.25;0.25;;;19.90;78.80;;;;;;5050243;28;20033;-86
2023/05/21 09:42:48;;;;;;;0.30;0.30;;;20.30;79.00;;;;;;5049549;28;20032;-85
2023/05/21 09:45:25;;;;;;;0.10;0.10;;;20.10;75.40;;;;;;5034798;28;20111;-87
2023/05/21 09:47:52;;;;;;;;;;;20.50;74.80;;;;;;5058520;28;20123;-86
2023/05/21 09:50:18;;;;;;;0.10;0.10;;;20.40;74.30;;;;;;5056310;28;20275;-88
2023/05/21 09:52:44;;;;;;;;;;;20.50;75.00;;;;;;5049545;28;20025;-89
2023/05/21 09:55:11;;;;;;;0.20;0.20;;;20.60;74.90;;;;;;5052291;28;19922;-82
2023/05/21 09:57:45;;;;;;;0.30;0.30;;;20.40;74.70;;;;;;5053780;28;20636;-84
2023/05/21 10:00:26;;;;;;;0.25;0.25;;;19.90;75.50;;;;;;5049527;28;20121;-84
2023/05/21 10:02:56;;;;;;;0.47;0.47;;;19.60;79.70;;;;;;5054625;28;20021;-83
2023/05/21 10:05:27;;;;;;;0.57;0.57;;;19.70;77.90;;;;;;5048986;28;20052;-83
2023/05/21 10:08:03;;;;;;;0.43;0.43;;;19.70;77.60;;;;;;5052462;28;20044;-84
2023/05/21 10:10:30;;;;;;;0.00;0.00;;;20.00;76.00;;;;;;5060263;28;20032;-83
2023/05/21 10:13:02;;;;;;;0.28;0.28;;;19.90;76.50;;;;;;5055706;28;20024;-86
2023/05/21 10:15:33;;;;;;;0.30;0.30;;;20.30;74.80;;;;;;5029757;28;20031;-86
2023/05/21 10:18:00;;;;;;;0.40;0.40;;;20.20;74.00;;;;;;5051935;28;20020;-83
2023/05/21 10:20:26;;;;;;;;;;;19.80;75.80;;;;;;5039039;28;20055;-84
2023/05/21 10:22:52;;;;;;;0.00;0.00;;;19.40;76.80;;;;;;5026359;28;20026;-84
2023/05/21 10:25:19;;;;;;;0.85;0.85;;;19.00;79.10;;;;;;5031057;28;20048;-85
2023/05/21 10:27:44;;;;;;;;;;;18.50;79.40;;;;;;5047979;28;20069;-84
2023/05/21 10:30:11;;;;;;;0.35;0.35;;;18.30;80.50;;;;;;5045121;28;20315;-83
2023/05/21 10:32:40;;;;;;;1.27;0.82;;;18.20;81.20;;;;;;5043605;28;20029;-84
2023/05/21 10:35:07;;;;;;;0.40;0.40;;;18.40;80.00;;;;;;5027430;28;20033;-81
2023/05/21 10:37:34;;;;;;;1.48;1.15;;;18.20;79.70;;;;;;5041621;28;20068;-82
2023/05/21 10:40:00;;;;;;;0.38;0.32;;;18.30;79.40;;;;;;5042632;28;20083;-83
2023/05/21 10:42:46;;;;;;;0.88;0.73;;;18.20;80.10;;;;;;5043141;28;20025;-84
2023/05/21 10:45:31;;;;;;;0.32;0.32;;;18.10;80.70;;;;;;5014881;28;21006;-83
2023/05/21 10:48:24;;;;;;;0.50;0.50;;;18.10;80.90;;;;;;5043301;28;20320;-81
2023/05/21 10:50:52;;;;;;;0.10;0.10;;;17.80;81.90;;;;;;5053785;28;20048;-83
2023/05/21 10:53:28;;;;;;;3.78;0.98;;;18.10;82.10;;;;;;5049778;28;20098;-82
2023/05/21 10:56:24;;;;;;;0.65;0.65;;;18.30;81.70;;;;;;5051414;28;20028;-82
2023/05/21 10:58:56;;;;;;;0.75;0.68;;;18.10;82.50;;;;;;5053536;28;20021;-83
2023/05/21 11:01:22;;;;;;;0.30;0.30;;;17.90;83.80;;;;;;5042406;28;20029;-81
2023/05/21 11:03:48;;;;;;;0.73;0.65;;;17.80;86.10;;;;;;5047305;28;20447;-83
2023/05/21 11:06:24;;;;;;;0.52;0.52;;;17.50;88.90;;;;;;5053618;28;20033;-83
2023/05/21 11:08:52;;;;;;;0.40;0.40;;;17.50;90.60;;;;;;5057225;28;20037;-83
2023/05/21 11:11:41;;;;;;;0.57;0.57;;;17.80;90.00;;;;;;5023459;28;20025;-84
2023/05/21 11:14:25;;;;;;;0.10;0.10;;;18.00;88.50;;;;;;5043695;28;20136;-84
2023/05/21 11:16:51;;;;;;;1.85;0.57;;;17.80;88.50;;;;;;5047099;28;20033;-84
2023/05/21 11:19:17;;;;;;;0.37;0.37;;;17.60;89.60;;;;;;5044318;28;20143;-82
2023/05/21 11:21:48;;;;;;;0.15;0.15;;;17.30;90.50;;;;;;5045154;28;20029;-83
2023/05/21 11:24:18;;;;;;;0.88;0.88;;;17.30;90.40;;;;;;5050930;28;20037;-82
2023/05/21 11:26:47;;;;;;;0.32;0.32;;;17.40;90.60;;;;;;5060208;28;20144;-82
2023/05/21 11:29:17;;;;;;;0.15;0.15;;;17.40;90.80;;;;;;5049310;28;20040;-82
2023/05/21 11:31:47;;;;;;;0.55;0.55;;;17.40;90.60;;;;;;5052416;28;20074;-82
2023/05/21 11:34:30;;;;;;;0.52;0.52;;;17.70;90.30;;;;;;5049356;28;20100;-82
2023/05/21 11:37:33;;;;;;;0.50;0.50;;;18.20;89.90;;;;;;5057469;28;20050;-82
2023/05/21 11:40:22;;;;;;;0.10;0.10;;;18.90;87.10;;;;;;5053343;28;20460;-82
2023/05/21 11:42:51;;;;;;;0.93;0.93;;;19.90;84.80;;;;;;5043452;28;20036;-81
2023/05/21 11:45:18;;;;;;;0.63;0.57;;;20.50;83.20;;;;;;5052409;28;20060;-82
2023/05/21 11:47:45;;;;;;;8.35;1.58;;;20.70;82.20;;;;;;5036357;28;20135;-82
2023/05/21 11:50:13;;;;;;;2.25;0.85;;;20.90;84.50;;;;;;5052534;28;20055;-82
2023/05/21 11:52:40;;;;;;;0.35;0.35;;;21.10;82.50;;;;;;5036334;28;20474;-81
2023/05/21 11:55:07;;;;;;;0.55;0.55;;;21.10;83.20;;;;;;5046566;28;20025;-81
2023/05/21 11:57:33;;;;;;;0.75;0.75;;;21.10;81.60;;;;;;5063688;28;20028;-81
2023/05/21 12:00:00;;;;;;;0.47;0.47;;;21.40;81.00;;;;;;5052486;28;20832;-81
2023/05/21 12:02:31;;;;;;;0.25;0.25;;;21.50;80.30;;;;;;5056350;28;20911;-81
2023/05/21 12:04:59;;;;;;;0.88;0.88;;;21.20;79.50;;;;;;5053181;28;20891;-81
2023/05/21 12:07:28;;;;;;;0.40;0.40;;;20.90;81.50;;;;;;5035754;28;20035;-80
2023/05/21 12:09:55;;;;;;;3.13;0.90;;;20.90;79.40;;;;;;5053140;28;20029;-81
2023/05/21 12:12:23;;;;;;;0.10;0.10;;;20.80;78.50;;;;;;5054772;28;20025;-81
2023/05/21 12:14:50;;;;;;;0.38;0.35;;;20.50;78.90;;;;;;5053932;28;20025;-81
2023/05/21 12:17:20;;;;;;;0.40;0.32;;;20.40;80.10;;;;;;5052249;28;20025;-81
2023/05/21 12:19:50;;;;;;;0.10;0.10;;;20.60;81.00;;;;;;5044860;28;20105;-81
2023/05/21 12:22:16;;;;;;;0.45;0.45;;;20.70;80.10;;;;;;5047506;28;20029;-80
2023/05/21 12:24:42;;;;;;;0.68;0.68;;;20.90;79.40;;;;;;5048639;28;20035;-81
2023/05/21 12:27:09;;;;;;;0.57;0.57;;;21.00;79.10;;;;;;5052177;28;20452;-80
2023/05/21 12:29:43;;;;;;;0.90;0.80;;;21.10;78.40;;;;;;5049537;28;20490;-81
2023/05/21 12:32:11;;;;;;;0.30;0.30;;;21.40;77.60;;;;;;5054679;28;20037;-80
2023/05/21 12:34:47;;;;;;;0.20;0.20;;;21.70;75.80;;;;;;5048111;28;20032;-80
2023/05/21 12:37:25;;;;;;;0.47;0.47;;;21.70;81.30;;;;;;5049638;28;20131;-81
2023/05/21 12:39:53;;;;;;;0.30;0.30;;;22.10;75.70;;;;;;5050677;28;20039;-80
2023/05/21 12:42:26;;;;;;;0.32;0.32;;;22.00;73.70;;;;;;5052224;28;20023;-80
2023/05/21 12:44:52;;;;;;;0.55;0.55;;;21.70;73.10;;;;;;5051856;28;20056;-80
2023/05/21 12:47:21;;;;;;;0.20;0.20;;;21.60;75.70;;;;;;5049263;28;20025;-80
2023/05/21 12:49:47;;;;;;;0.10;0.10;;;21.70;74.00;;;;;;5054284;28;20064;-80